sensor_id;sensor_type;location;lat;lon;timestamp;temperature;humidity
28010;DHT22;15334;49.494;8.410;2022-11-20T00:01:33;4.20;99.90
28010;DHT22;15334;49.494;8.410;2022-11-20T00:04:01;4.20;99.90
28010;DHT22;15334;49.494;8.410;2022-11-20T00:06:30;4.30;99.90
28010;DHT22;15334;49.494;8.410;2022-11-20T00:09:01;4.30;99.90
28010;DHT22;15334;49.494;8.410;2022-11-20T00:11:31;4.30;99.90
28010;DHT22;15334;49.494;8.410;2022-11-20T00:14:01;4.40;99.90
28010;DHT22;15334;49.494;8.410;2022-11-20T00:16:32;4.30;99.90
28010;DHT22;15334;49.494;8.410;2022-11-20T00:19:01;4.30;99.90
28010;DHT22;15334;49.494;8.410;2022-11-20T00:21:30;4.40;99.90
28010;DHT22;15334;49.494;8.410;2022-11-20T00:23:59;4.40;99.90
28010;DHT22;15334;49.494;8.410;2022-11-20T00:26:28;4.30;99.90
28010;DHT22;15334;49.494;8.410;2022-11-20T00:28:58;4.30;99.90
28010;DHT22;15334;49.494;8.410;2022-11-20T00:31:27;4.30;99.90
28010;DHT22;15334;49.494;8.410;2022-11-20T00:33:57;4.20;99.90
28010;DHT22;15334;49.494;8.410;2022-11-20T00:36:27;4.10;99.90
28010;DHT22;15334;49.494;8.410;2022-11-20T00:38:57;4.10;99.90
28010;DHT22;15334;49.494;8.410;2022-11-20T00:41:29;4.10;99.90
28010;DHT22;15334;49.494;8.410;2022-11-20T00:43:57;4.20;99.90
28010;DHT22;15334;49.494;8.410;2022-11-20T00:46:27;4.10;99.90
28010;DHT22;15334;49.494;8.410;2022-11-20T00:49:00;4.10;99.90
28010;DHT22;15334;49.494;8.410;2022-11-20T00:51:27;4.00;99.90
28010;DHT22;15334;49.494;8.410;2022-11-20T00:53:56;4.00;99.90
28010;DHT22;15334;49.494;8.410;2022-11-20T00:56:26;4.10;99.90
28010;DHT22;15334;49.494;8.410;2022-11-20T00:58:55;4.10;99.90
28010;DHT22;15334;49.494;8.410;2022-11-20T01:01:24;4.10;99.90
28010;DHT22;15334;49.494;8.410;2022-11-20T01:03:57;4.10;99.90
28010;DHT22;15334;49.494;8.410;2022-11-20T01:06:29;3.70;99.90
28010;DHT22;15334;49.494;8.410;2022-11-20T01:08:58;3.80;99.90
28010;DHT22;15334;49.494;8.410;2022-11-20T01:11:29;3.90;99.90
28010;DHT22;15334;49.494;8.410;2022-11-20T01:13:58;3.90;99.90
28010;DHT22;15334;49.494;8.410;2022-11-20T01:16:28;4.10;99.90
28010;DHT22;15334;49.494;8.410;2022-11-20T01:18:59;4.10;99.90
28010;DHT22;15334;49.494;8.410;2022-11-20T01:21:30;4.10;99.90
28010;DHT22;15334;49.494;8.410;2022-11-20T01:24:18;4.20;99.90
28010;DHT22;15334;49.494;8.410;2022-11-20T01:26:48;4.20;99.90
28010;DHT22;15334;49.494;8.410;2022-11-20T01:29:18;4.20;99.90
28010;DHT22;15334;49.494;8.410;2022-11-20T01:31:48;4.20;99.90
28010;DHT22;15334;49.494;8.410;2022-11-20T01:34:19;4.10;99.90
28010;DHT22;15334;49.494;8.410;2022-11-20T01:36:50;4.10;99.90
28010;DHT22;15334;49.494;8.410;2022-11-20T01:39:21;4.20;99.90
28010;DHT22;15334;49.494;8.410;2022-11-20T01:41:51;4.30;99.90
28010;DHT22;15334;49.494;8.410;2022-11-20T01:44:49;4.30;99.90
28010;DHT22;15334;49.494;8.410;2022-11-20T01:47:22;4.30;99.90
28010;DHT22;15334;49.494;8.410;2022-11-20T01:49:56;4.30;99.90
28010;DHT22;15334;49.494;8.410;2022-11-20T01:52:29;4.30;99.90
28010;DHT22;15334;49.494;8.410;2022-11-20T01:55:01;4.30;99.90
28010;DHT22;15334;49.494;8.410;2022-11-20T01:57:33;4.40;99.90
28010;DHT22;15334;49.494;8.410;2022-11-20T02:00:06;4.40;99.90
28010;DHT22;15334;49.494;8.410;2022-11-20T02:02:38;4.40;99.90
28010;DHT22;15334;49.494;8.410;2022-11-20T02:05:16;4.40;99.90
28010;DHT22;15334;49.494;8.410;2022-11-20T02:07:46;4.40;99.90
28010;DHT22;15334;49.494;8.410;2022-11-20T02:10:16;4.40;99.90
28010;DHT22;15334;49.494;8.410;2022-11-20T02:12:44;4.40;99.90
28010;DHT22;15334;49.494;8.410;2022-11-20T02:15:30;4.50;99.90
28010;DHT22;15334;49.494;8.410;2022-11-20T02:18:00;4.20;99.90
28010;DHT22;15334;49.494;8.410;2022-11-20T02:20:30;4.30;99.90
28010;DHT22;15334;49.494;8.410;2022-11-20T02:23:02;4.30;99.90
28010;DHT22;15334;49.494;8.410;2022-11-20T02:25:35;4.40;99.90
28010;DHT22;15334;49.494;8.410;2022-11-20T02:28:05;4.40;99.90
28010;DHT22;15334;49.494;8.410;2022-11-20T02:30:33;4.40;99.90
28010;DHT22;15334;49.494;8.410;2022-11-20T02:33:02;4.40;99.90
28010;DHT22;15334;49.494;8.410;2022-11-20T02:35:43;4.40;99.90
28010;DHT22;15334;49.494;8.410;2022-11-20T02:38:12;4.50;99.90
28010;DHT22;15334;49.494;8.410;2022-11-20T02:40:45;4.50;99.90
28010;DHT22;15334;49.494;8.410;2022-11-20T02:43:21;4.40;99.90
28010;DHT22;15334;49.494;8.410;2022-11-20T02:45:49;4.40;99.90
28010;DHT22;15334;49.494;8.410;2022-11-20T02:48:18;4.40;99.90
28010;DHT22;15334;49.494;8.410;2022-11-20T02:50:46;4.40;99.90
28010;DHT22;15334;49.494;8.410;2022-11-20T02:53:15;4.40;99.90
28010;DHT22;15334;49.494;8.410;2022-11-20T02:55:45;4.40;99.90
28010;DHT22;15334;49.494;8.410;2022-11-20T02:58:13;4.30;99.90
28010;DHT22;15334;49.494;8.410;2022-11-20T03:00:41;4.30;99.90
28010;DHT22;15334;49.494;8.410;2022-11-20T03:03:09;4.30;99.90
28010;DHT22;15334;49.494;8.410;2022-11-20T03:05:38;4.30;99.90
28010;DHT22;15334;49.494;8.410;2022-11-20T03:08:06;4.30;99.90
28010;DHT22;15334;49.494;8.410;2022-11-20T03:10:34;4.30;99.90
28010;DHT22;15334;49.494;8.410;2022-11-20T03:13:04;4.30;99.90
28010;DHT22;15334;49.494;8.410;2022-11-20T03:15:32;4.20;99.90
28010;DHT22;15334;49.494;8.410;2022-11-20T03:18:02;4.20;99.90
28010;DHT22;15334;49.494;8.410;2022-11-20T03:20:31;4.20;99.90
28010;DHT22;15334;49.494;8.410;2022-11-20T03:23:02;4.20;99.90
28010;DHT22;15334;49.494;8.410;2022-11-20T03:25:30;4.30;99.90
28010;DHT22;15334;49.494;8.410;2022-11-20T03:27:59;4.30;99.90
28010;DHT22;15334;49.494;8.410;2022-11-20T03:30:29;4.30;99.90
28010;DHT22;15334;49.494;8.410;2022-11-20T03:32:57;4.30;99.90
28010;DHT22;15334;49.494;8.410;2022-11-20T03:35:26;4.30;99.90
28010;DHT22;15334;49.494;8.410;2022-11-20T03:37:55;4.30;99.90
28010;DHT22;15334;49.494;8.410;2022-11-20T03:40:23;4.30;99.90
28010;DHT22;15334;49.494;8.410;2022-11-20T03:42:52;4.30;99.90
28010;DHT22;15334;49.494;8.410;2022-11-20T03:45:23;4.40;99.90
28010;DHT22;15334;49.494;8.410;2022-11-20T03:47:55;4.40;99.90
28010;DHT22;15334;49.494;8.410;2022-11-20T03:50:31;4.40;99.90
28010;DHT22;15334;49.494;8.410;2022-11-20T03:52:59;4.50;99.90
28010;DHT22;15334;49.494;8.410;2022-11-20T03:55:35;4.40;99.90
28010;DHT22;15334;49.494;8.410;2022-11-20T03:58:09;4.40;99.90
28010;DHT22;15334;49.494;8.410;2022-11-20T04:00:49;4.40;99.90
28010;DHT22;15334;49.494;8.410;2022-11-20T04:03:21;4.40;99.90
28010;DHT22;15334;49.494;8.410;2022-11-20T04:06:02;4.50;99.90
28010;DHT22;15334;49.494;8.410;2022-11-20T04:08:44;4.50;99.90
28010;DHT22;15334;49.494;8.410;2022-11-20T04:11:21;4.50;99.90
28010;DHT22;15334;49.494;8.410;2022-11-20T04:13:56;4.50;99.90
28010;DHT22;15334;49.494;8.410;2022-11-20T04:16:32;4.40;99.90
28010;DHT22;15334;49.494;8.410;2022-11-20T04:19:13;4.40;99.90
28010;DHT22;15334;49.494;8.410;2022-11-20T04:21:58;4.40;99.90
28010;DHT22;15334;49.494;8.410;2022-11-20T04:24:32;4.40;99.90
28010;DHT22;15334;49.494;8.410;2022-11-20T04:27:10;4.40;99.90
28010;DHT22;15334;49.494;8.410;2022-11-20T04:29:52;4.40;99.90
28010;DHT22;15334;49.494;8.410;2022-11-20T04:32:31;4.40;99.90
28010;DHT22;15334;49.494;8.410;2022-11-20T04:35:01;4.40;99.90
28010;DHT22;15334;49.494;8.410;2022-11-20T04:37:38;4.40;99.90
28010;DHT22;15334;49.494;8.410;2022-11-20T04:40:16;4.40;99.90
28010;DHT22;15334;49.494;8.410;2022-11-20T04:42:44;4.40;99.90
28010;DHT22;15334;49.494;8.410;2022-11-20T04:45:13;4.40;99.90
28010;DHT22;15334;49.494;8.410;2022-11-20T04:47:48;4.40;99.90
28010;DHT22;15334;49.494;8.410;2022-11-20T04:50:19;4.40;99.90
28010;DHT22;15334;49.494;8.410;2022-11-20T04:52:47;4.40;99.90
28010;DHT22;15334;49.494;8.410;2022-11-20T04:55:21;4.50;99.90
28010;DHT22;15334;49.494;8.410;2022-11-20T04:57:49;4.50;99.90
28010;DHT22;15334;49.494;8.410;2022-11-20T05:00:27;4.50;99.90
28010;DHT22;15334;49.494;8.410;2022-11-20T05:03:33;4.50;99.90
28010;DHT22;15334;49.494;8.410;2022-11-20T05:06:16;4.60;99.90
28010;DHT22;15334;49.494;8.410;2022-11-20T05:08:45;4.60;99.90
28010;DHT22;15334;49.494;8.410;2022-11-20T05:11:18;4.60;99.90
28010;DHT22;15334;49.494;8.410;2022-11-20T05:14:04;4.60;99.90
28010;DHT22;15334;49.494;8.410;2022-11-20T05:16:35;4.70;99.90
28010;DHT22;15334;49.494;8.410;2022-11-20T05:19:07;4.60;99.90
28010;DHT22;15334;49.494;8.410;2022-11-20T05:21:45;4.50;99.90
28010;DHT22;15334;49.494;8.410;2022-11-20T05:24:14;4.50;99.90
28010;DHT22;15334;49.494;8.410;2022-11-20T05:26:47;4.60;99.90
28010;DHT22;15334;49.494;8.410;2022-11-20T05:29:16;4.60;99.90
28010;DHT22;15334;49.494;8.410;2022-11-20T05:31:48;4.60;99.90
28010;DHT22;15334;49.494;8.410;2022-11-20T05:34:16;4.60;99.90
28010;DHT22;15334;49.494;8.410;2022-11-20T05:36:48;4.60;99.90
28010;DHT22;15334;49.494;8.410;2022-11-20T05:39:16;4.60;99.90
28010;DHT22;15334;49.494;8.410;2022-11-20T05:41:57;4.70;99.90
28010;DHT22;15334;49.494;8.410;2022-11-20T05:44:39;4.70;99.90
28010;DHT22;15334;49.494;8.410;2022-11-20T05:47:15;4.70;99.90
28010;DHT22;15334;49.494;8.410;2022-11-20T05:49:49;4.70;99.90
28010;DHT22;15334;49.494;8.410;2022-11-20T05:52:20;4.70;99.90
28010;DHT22;15334;49.494;8.410;2022-11-20T05:54:57;4.70;99.90
28010;DHT22;15334;49.494;8.410;2022-11-20T05:57:39;4.70;99.90
28010;DHT22;15334;49.494;8.410;2022-11-20T06:00:19;4.80;99.90
28010;DHT22;15334;49.494;8.410;2022-11-20T06:03:25;4.70;99.90
28010;DHT22;15334;49.494;8.410;2022-11-20T06:06:10;4.70;99.90
28010;DHT22;15334;49.494;8.410;2022-11-20T06:08:46;4.80;99.90
28010;DHT22;15334;49.494;8.410;2022-11-20T06:11:19;4.80;99.90
28010;DHT22;15334;49.494;8.410;2022-11-20T06:13:51;4.80;99.90
28010;DHT22;15334;49.494;8.410;2022-11-20T06:16:25;4.80;99.90
28010;DHT22;15334;49.494;8.410;2022-11-20T06:19:05;4.80;99.90
28010;DHT22;15334;49.494;8.410;2022-11-20T06:21:44;4.80;99.90
28010;DHT22;15334;49.494;8.410;2022-11-20T06:24:17;4.80;99.90
28010;DHT22;15334;49.494;8.410;2022-11-20T06:26:55;4.80;99.90
28010;DHT22;15334;49.494;8.410;2022-11-20T06:29:39;4.70;99.90
28010;DHT22;15334;49.494;8.410;2022-11-20T06:32:12;4.80;99.90
28010;DHT22;15334;49.494;8.410;2022-11-20T06:34:51;4.80;99.90
28010;DHT22;15334;49.494;8.410;2022-11-20T06:37:57;4.90;99.90
28010;DHT22;15334;49.494;8.410;2022-11-20T06:40:56;4.90;99.90
28010;DHT22;15334;49.494;8.410;2022-11-20T06:43:54;4.90;99.90
28010;DHT22;15334;49.494;8.410;2022-11-20T06:46:34;4.90;99.90
28010;DHT22;15334;49.494;8.410;2022-11-20T06:49:02;4.90;99.90
28010;DHT22;15334;49.494;8.410;2022-11-20T06:51:32;4.90;99.90
28010;DHT22;15334;49.494;8.410;2022-11-20T06:54:38;4.90;99.90
28010;DHT22;15334;49.494;8.410;2022-11-20T06:57:22;4.90;99.90
28010;DHT22;15334;49.494;8.410;2022-11-20T07:00:29;4.90;99.90
28010;DHT22;15334;49.494;8.410;2022-11-20T07:03:29;4.90;99.90
28010;DHT22;15334;49.494;8.410;2022-11-20T07:06:08;4.80;99.90
28010;DHT22;15334;49.494;8.410;2022-11-20T07:08:43;4.70;99.90
28010;DHT22;15334;49.494;8.410;2022-11-20T07:11:44;4.60;99.90
28010;DHT22;15334;49.494;8.410;2022-11-20T07:14:49;4.60;99.90
28010;DHT22;15334;49.494;8.410;2022-11-20T07:17:47;4.70;99.90
28010;DHT22;15334;49.494;8.410;2022-11-20T07:20:32;4.70;99.90
28010;DHT22;15334;49.494;8.410;2022-11-20T07:23:16;4.70;99.90
28010;DHT22;15334;49.494;8.410;2022-11-20T07:26:13;4.80;99.90
28010;DHT22;15334;49.494;8.410;2022-11-20T07:28:52;4.90;99.90
28010;DHT22;15334;49.494;8.410;2022-11-20T07:32:22;4.90;99.90
28010;DHT22;15334;49.494;8.410;2022-11-20T07:34:51;5.00;99.90
28010;DHT22;15334;49.494;8.410;2022-11-20T07:37:19;5.00;99.90
28010;DHT22;15334;49.494;8.410;2022-11-20T07:39:47;5.10;99.90
28010;DHT22;15334;49.494;8.410;2022-11-20T07:42:15;5.10;99.90
28010;DHT22;15334;49.494;8.410;2022-11-20T07:44:43;5.10;99.90
28010;DHT22;15334;49.494;8.410;2022-11-20T07:47:11;5.20;99.90
28010;DHT22;15334;49.494;8.410;2022-11-20T07:49:41;5.20;99.90
28010;DHT22;15334;49.494;8.410;2022-11-20T07:52:10;5.20;99.90
28010;DHT22;15334;49.494;8.410;2022-11-20T07:54:38;5.20;99.90
28010;DHT22;15334;49.494;8.410;2022-11-20T07:57:06;5.20;99.90
28010;DHT22;15334;49.494;8.410;2022-11-20T07:59:34;5.30;99.90
28010;DHT22;15334;49.494;8.410;2022-11-20T08:02:05;5.40;99.90
28010;DHT22;15334;49.494;8.410;2022-11-20T08:04:33;5.30;99.90
28010;DHT22;15334;49.494;8.410;2022-11-20T08:07:02;5.30;99.90
28010;DHT22;15334;49.494;8.410;2022-11-20T08:09:30;5.30;99.90
28010;DHT22;15334;49.494;8.410;2022-11-20T08:11:59;5.40;99.90
28010;DHT22;15334;49.494;8.410;2022-11-20T08:14:44;5.40;99.90
28010;DHT22;15334;49.494;8.410;2022-11-20T08:17:12;5.40;99.90
28010;DHT22;15334;49.494;8.410;2022-11-20T08:19:40;5.40;99.90
28010;DHT22;15334;49.494;8.410;2022-11-20T08:22:10;5.30;99.90
28010;DHT22;15334;49.494;8.410;2022-11-20T08:24:38;5.10;99.90
28010;DHT22;15334;49.494;8.410;2022-11-20T08:27:06;5.10;99.90
28010;DHT22;15334;49.494;8.410;2022-11-20T08:29:35;5.10;99.90
28010;DHT22;15334;49.494;8.410;2022-11-20T08:32:03;5.00;99.90
28010;DHT22;15334;49.494;8.410;2022-11-20T08:34:32;5.00;99.90
28010;DHT22;15334;49.494;8.410;2022-11-20T08:37:03;5.00;99.90
28010;DHT22;15334;49.494;8.410;2022-11-20T08:39:32;5.00;99.90
28010;DHT22;15334;49.494;8.410;2022-11-20T08:42:00;5.10;99.90
28010;DHT22;15334;49.494;8.410;2022-11-20T08:44:28;5.20;99.90
28010;DHT22;15334;49.494;8.410;2022-11-20T08:46:56;5.20;99.90
28010;DHT22;15334;49.494;8.410;2022-11-20T08:49:24;5.30;99.90
28010;DHT22;15334;49.494;8.410;2022-11-20T08:51:52;5.40;99.90
28010;DHT22;15334;49.494;8.410;2022-11-20T08:54:22;5.40;99.90
28010;DHT22;15334;49.494;8.410;2022-11-20T08:56:51;5.40;99.90
28010;DHT22;15334;49.494;8.410;2022-11-20T08:59:19;5.40;99.90
28010;DHT22;15334;49.494;8.410;2022-11-20T09:02:09;5.50;99.90
28010;DHT22;15334;49.494;8.410;2022-11-20T09:04:37;5.60;99.90
28010;DHT22;15334;49.494;8.410;2022-11-20T09:07:05;5.70;99.90
28010;DHT22;15334;49.494;8.410;2022-11-20T09:09:34;5.70;99.90
28010;DHT22;15334;49.494;8.410;2022-11-20T09:12:13;5.60;99.90
28010;DHT22;15334;49.494;8.410;2022-11-20T09:14:44;5.50;99.90
28010;DHT22;15334;49.494;8.410;2022-11-20T09:17:20;5.50;99.90
28010;DHT22;15334;49.494;8.410;2022-11-20T09:19:48;5.50;99.90
28010;DHT22;15334;49.494;8.410;2022-11-20T09:22:16;5.60;99.90
28010;DHT22;15334;49.494;8.410;2022-11-20T09:24:44;5.60;99.90
28010;DHT22;15334;49.494;8.410;2022-11-20T09:27:14;5.70;99.90
28010;DHT22;15334;49.494;8.410;2022-11-20T09:29:45;5.70;99.90
28010;DHT22;15334;49.494;8.410;2022-11-20T09:32:13;5.50;99.90
28010;DHT22;15334;49.494;8.410;2022-11-20T09:34:41;5.50;99.90
28010;DHT22;15334;49.494;8.410;2022-11-20T09:37:09;5.60;99.90
28010;DHT22;15334;49.494;8.410;2022-11-20T09:39:37;5.60;99.90
28010;DHT22;15334;49.494;8.410;2022-11-20T09:45:11;5.80;99.90
28010;DHT22;15334;49.494;8.410;2022-11-20T09:50:41;5.90;99.90
28010;DHT22;15334;49.494;8.410;2022-11-20T09:53:16;5.90;99.90
28010;DHT22;15334;49.494;8.410;2022-11-20T09:55:48;6.00;99.90
28010;DHT22;15334;49.494;8.410;2022-11-20T09:58:24;6.10;99.90
28010;DHT22;15334;49.494;8.410;2022-11-20T10:01:03;6.10;99.90
28010;DHT22;15334;49.494;8.410;2022-11-20T10:03:38;6.20;99.90
28010;DHT22;15334;49.494;8.410;2022-11-20T10:06:12;6.20;99.90
28010;DHT22;15334;49.494;8.410;2022-11-20T10:08:45;6.30;99.90
28010;DHT22;15334;49.494;8.410;2022-11-20T10:11:24;6.30;99.90
28010;DHT22;15334;49.494;8.410;2022-11-20T10:14:03;6.30;99.90
28010;DHT22;15334;49.494;8.410;2022-11-20T10:16:44;6.20;99.90
28010;DHT22;15334;49.494;8.410;2022-11-20T10:19:25;6.20;99.90
28010;DHT22;15334;49.494;8.410;2022-11-20T10:22:06;6.10;99.90
28010;DHT22;15334;49.494;8.410;2022-11-20T10:24:44;6.20;99.90
28010;DHT22;15334;49.494;8.410;2022-11-20T10:27:31;6.20;99.90
28010;DHT22;15334;49.494;8.410;2022-11-20T10:30:02;6.30;99.90
28010;DHT22;15334;49.494;8.410;2022-11-20T10:32:36;6.40;99.90
28010;DHT22;15334;49.494;8.410;2022-11-20T10:35:16;6.40;99.90
28010;DHT22;15334;49.494;8.410;2022-11-20T10:37:49;6.50;99.90
28010;DHT22;15334;49.494;8.410;2022-11-20T10:40:25;6.60;99.90
28010;DHT22;15334;49.494;8.410;2022-11-20T10:42:58;6.60;99.90
28010;DHT22;15334;49.494;8.410;2022-11-20T10:45:47;6.60;99.90
28010;DHT22;15334;49.494;8.410;2022-11-20T10:48:21;6.50;99.90
28010;DHT22;15334;49.494;8.410;2022-11-20T10:53:51;6.60;99.90
28010;DHT22;15334;49.494;8.410;2022-11-20T10:56:27;6.60;99.90
28010;DHT22;15334;49.494;8.410;2022-11-20T10:59:32;6.70;99.90
28010;DHT22;15334;49.494;8.410;2022-11-20T11:02:15;6.80;99.90
28010;DHT22;15334;49.494;8.410;2022-11-20T11:04:46;6.80;99.90
28010;DHT22;15334;49.494;8.410;2022-11-20T11:07:19;6.70;99.90
28010;DHT22;15334;49.494;8.410;2022-11-20T11:09:50;6.70;99.90
28010;DHT22;15334;49.494;8.410;2022-11-20T11:12:18;6.80;99.90
28010;DHT22;15334;49.494;8.410;2022-11-20T11:14:49;6.90;99.90
28010;DHT22;15334;49.494;8.410;2022-11-20T11:17:26;7.10;99.90
28010;DHT22;15334;49.494;8.410;2022-11-20T11:20:03;7.50;99.90
28010;DHT22;15334;49.494;8.410;2022-11-20T11:22:34;8.20;99.90
28010;DHT22;15334;49.494;8.410;2022-11-20T11:25:28;9.30;99.90
28010;DHT22;15334;49.494;8.410;2022-11-20T11:27:59;10.80;99.90
28010;DHT22;15334;49.494;8.410;2022-11-20T11:30:28;12.60;99.90
28010;DHT22;15334;49.494;8.410;2022-11-20T11:33:06;13.80;99.90
28010;DHT22;15334;49.494;8.410;2022-11-20T11:35:44;14.50;99.90
28010;DHT22;15334;49.494;8.410;2022-11-20T11:38:29;15.30;99.90
28010;DHT22;15334;49.494;8.410;2022-11-20T11:40:58;14.90;99.90
28010;DHT22;15334;49.494;8.410;2022-11-20T11:43:29;14.00;99.90
28010;DHT22;15334;49.494;8.410;2022-11-20T11:46:30;13.00;99.90
28010;DHT22;15334;49.494;8.410;2022-11-20T11:49:01;12.30;99.90
28010;DHT22;15334;49.494;8.410;2022-11-20T11:51:39;12.10;99.90
28010;DHT22;15334;49.494;8.410;2022-11-20T11:54:16;12.30;99.90
28010;DHT22;15334;49.494;8.410;2022-11-20T11:56:47;12.50;99.90
28010;DHT22;15334;49.494;8.410;2022-11-20T11:59:22;12.30;99.90
28010;DHT22;15334;49.494;8.410;2022-11-20T12:01:57;12.00;99.90
28010;DHT22;15334;49.494;8.410;2022-11-20T12:04:43;11.70;99.90
28010;DHT22;15334;49.494;8.410;2022-11-20T12:07:19;11.30;99.90
28010;DHT22;15334;49.494;8.410;2022-11-20T12:10:15;11.10;99.90
28010;DHT22;15334;49.494;8.410;2022-11-20T12:12:46;12.20;99.90
28010;DHT22;15334;49.494;8.410;2022-11-20T12:15:25;14.10;99.90
28010;DHT22;15334;49.494;8.410;2022-11-20T12:17:54;14.50;99.90
28010;DHT22;15334;49.494;8.410;2022-11-20T12:20:25;14.30;99.90
28010;DHT22;15334;49.494;8.410;2022-11-20T12:23:01;14.10;99.90
28010;DHT22;15334;49.494;8.410;2022-11-20T12:25:35;13.60;99.90
28010;DHT22;15334;49.494;8.410;2022-11-20T12:28:22;13.10;99.90
28010;DHT22;15334;49.494;8.410;2022-11-20T12:31:07;12.60;99.90
28010;DHT22;15334;49.494;8.410;2022-11-20T12:33:55;12.30;99.90
28010;DHT22;15334;49.494;8.410;2022-11-20T12:36:33;11.90;99.90
28010;DHT22;15334;49.494;8.410;2022-11-20T12:39:22;11.60;99.90
28010;DHT22;15334;49.494;8.410;2022-11-20T12:42:09;11.30;99.90
28010;DHT22;15334;49.494;8.410;2022-11-20T12:48:25;10.60;99.90
28010;DHT22;15334;49.494;8.410;2022-11-20T12:54:24;10.20;99.90
28010;DHT22;15334;49.494;8.410;2022-11-20T12:57:00;10.10;99.90
28010;DHT22;15334;49.494;8.410;2022-11-20T12:59:46;10.00;99.90
28010;DHT22;15334;49.494;8.410;2022-11-20T13:02:23;9.80;99.90
28010;DHT22;15334;49.494;8.410;2022-11-20T13:05:05;9.70;99.90
28010;DHT22;15334;49.494;8.410;2022-11-20T13:07:35;9.60;99.90
28010;DHT22;15334;49.494;8.410;2022-11-20T13:10:13;9.50;99.90
28010;DHT22;15334;49.494;8.410;2022-11-20T13:12:50;9.60;99.90
28010;DHT22;15334;49.494;8.410;2022-11-20T13:15:32;9.60;99.90
28010;DHT22;15334;49.494;8.410;2022-11-20T13:18:04;9.60;99.90
28010;DHT22;15334;49.494;8.410;2022-11-20T13:20:33;9.60;99.90
28010;DHT22;15334;49.494;8.410;2022-11-20T13:23:02;9.70;99.90
28010;DHT22;15334;49.494;8.410;2022-11-20T13:25:33;9.70;99.90
28010;DHT22;15334;49.494;8.410;2022-11-20T13:28:05;9.80;99.90
28010;DHT22;15334;49.494;8.410;2022-11-20T13:30:54;9.90;99.90
28010;DHT22;15334;49.494;8.410;2022-11-20T13:33:27;9.90;99.90
28010;DHT22;15334;49.494;8.410;2022-11-20T13:35:58;10.10;99.90
28010;DHT22;15334;49.494;8.410;2022-11-20T13:38:26;10.10;99.90
28010;DHT22;15334;49.494;8.410;2022-11-20T13:41:01;10.20;99.90
28010;DHT22;15334;49.494;8.410;2022-11-20T13:43:49;10.20;99.90
28010;DHT22;15334;49.494;8.410;2022-11-20T13:46:19;10.20;99.90
28010;DHT22;15334;49.494;8.410;2022-11-20T13:48:51;10.30;99.90
28010;DHT22;15334;49.494;8.410;2022-11-20T13:51:28;10.30;99.90
28010;DHT22;15334;49.494;8.410;2022-11-20T13:57:52;10.20;99.90
28010;DHT22;15334;49.494;8.410;2022-11-20T14:00:24;10.20;99.90
28010;DHT22;15334;49.494;8.410;2022-11-20T14:03:09;10.10;99.90
28010;DHT22;15334;49.494;8.410;2022-11-20T14:05:46;10.10;99.90
28010;DHT22;15334;49.494;8.410;2022-11-20T14:08:25;10.00;99.90
28010;DHT22;15334;49.494;8.410;2022-11-20T14:11:14;9.90;99.90
28010;DHT22;15334;49.494;8.410;2022-11-20T14:13:58;9.90;99.90
28010;DHT22;15334;49.494;8.410;2022-11-20T14:16:28;9.70;99.90
28010;DHT22;15334;49.494;8.410;2022-11-20T14:18:57;9.70;99.90
28010;DHT22;15334;49.494;8.410;2022-11-20T14:21:39;9.60;99.90
28010;DHT22;15334;49.494;8.410;2022-11-20T14:24:09;9.60;99.90
28010;DHT22;15334;49.494;8.410;2022-11-20T14:26:41;9.60;99.90
28010;DHT22;15334;49.494;8.410;2022-11-20T14:29:13;9.50;99.90
28010;DHT22;15334;49.494;8.410;2022-11-20T14:31:42;9.50;99.90
28010;DHT22;15334;49.494;8.410;2022-11-20T14:34:22;9.40;99.90
28010;DHT22;15334;49.494;8.410;2022-11-20T14:36:55;9.30;99.90
28010;DHT22;15334;49.494;8.410;2022-11-20T14:39:28;9.20;99.90
28010;DHT22;15334;49.494;8.410;2022-11-20T14:41:56;9.20;99.90
28010;DHT22;15334;49.494;8.410;2022-11-20T14:44:29;9.10;99.90
28010;DHT22;15334;49.494;8.410;2022-11-20T14:47:00;9.00;99.90
28010;DHT22;15334;49.494;8.410;2022-11-20T14:49:30;8.90;99.90
28010;DHT22;15334;49.494;8.410;2022-11-20T14:52:00;8.80;99.90
28010;DHT22;15334;49.494;8.410;2022-11-20T14:54:28;8.80;99.90
28010;DHT22;15334;49.494;8.410;2022-11-20T14:56:58;8.70;99.90
28010;DHT22;15334;49.494;8.410;2022-11-20T14:59:30;8.70;99.90
28010;DHT22;15334;49.494;8.410;2022-11-20T15:02:00;8.60;99.90
28010;DHT22;15334;49.494;8.410;2022-11-20T15:04:29;8.60;99.90
28010;DHT22;15334;49.494;8.410;2022-11-20T15:06:58;8.50;99.90
28010;DHT22;15334;49.494;8.410;2022-11-20T15:09:27;8.50;99.90
28010;DHT22;15334;49.494;8.410;2022-11-20T15:11:57;8.40;99.90
28010;DHT22;15334;49.494;8.410;2022-11-20T15:14:28;8.40;99.90
28010;DHT22;15334;49.494;8.410;2022-11-20T15:16:56;8.30;99.90
28010;DHT22;15334;49.494;8.410;2022-11-20T15:19:25;8.30;99.90
28010;DHT22;15334;49.494;8.410;2022-11-20T15:22:00;8.30;99.90
28010;DHT22;15334;49.494;8.410;2022-11-20T15:24:32;8.30;99.90
28010;DHT22;15334;49.494;8.410;2022-11-20T15:27:02;8.20;99.90
28010;DHT22;15334;49.494;8.410;2022-11-20T15:29:32;8.20;99.90
28010;DHT22;15334;49.494;8.410;2022-11-20T15:32:04;8.10;99.90
28010;DHT22;15334;49.494;8.410;2022-11-20T15:34:39;8.10;99.90
28010;DHT22;15334;49.494;8.410;2022-11-20T15:37:13;8.10;99.90
28010;DHT22;15334;49.494;8.410;2022-11-20T15:39:44;8.10;99.90
28010;DHT22;15334;49.494;8.410;2022-11-20T15:42:26;8.10;99.90
28010;DHT22;15334;49.494;8.410;2022-11-20T15:44:56;8.00;99.90
28010;DHT22;15334;49.494;8.410;2022-11-20T15:47:39;8.00;99.90
28010;DHT22;15334;49.494;8.410;2022-11-20T15:50:11;7.90;99.90
28010;DHT22;15334;49.494;8.410;2022-11-20T15:52:46;7.80;99.90
28010;DHT22;15334;49.494;8.410;2022-11-20T15:55:15;7.80;99.90
28010;DHT22;15334;49.494;8.410;2022-11-20T15:57:43;7.80;99.90
28010;DHT22;15334;49.494;8.410;2022-11-20T16:00:14;7.80;99.90
28010;DHT22;15334;49.494;8.410;2022-11-20T16:02:49;7.70;99.90
28010;DHT22;15334;49.494;8.410;2022-11-20T16:05:17;7.70;99.90
28010;DHT22;15334;49.494;8.410;2022-11-20T16:07:50;7.60;99.90
28010;DHT22;15334;49.494;8.410;2022-11-20T16:10:18;7.60;99.90
28010;DHT22;15334;49.494;8.410;2022-11-20T16:12:50;7.60;99.90
28010;DHT22;15334;49.494;8.410;2022-11-20T16:15:37;7.60;99.90
28010;DHT22;15334;49.494;8.410;2022-11-20T16:18:19;7.60;99.90
28010;DHT22;15334;49.494;8.410;2022-11-20T16:20:50;7.60;99.90
28010;DHT22;15334;49.494;8.410;2022-11-20T16:23:20;7.70;99.90
28010;DHT22;15334;49.494;8.410;2022-11-20T16:25:49;7.70;99.90
28010;DHT22;15334;49.494;8.410;2022-11-20T16:28:18;7.70;99.90
28010;DHT22;15334;49.494;8.410;2022-11-20T16:30:48;7.70;99.90
28010;DHT22;15334;49.494;8.410;2022-11-20T16:33:16;7.70;99.90
28010;DHT22;15334;49.494;8.410;2022-11-20T16:35:45;7.80;99.90
28010;DHT22;15334;49.494;8.410;2022-11-20T16:38:15;7.70;99.90
28010;DHT22;15334;49.494;8.410;2022-11-20T16:40:43;7.80;99.90
28010;DHT22;15334;49.494;8.410;2022-11-20T16:43:13;7.80;99.90
28010;DHT22;15334;49.494;8.410;2022-11-20T16:45:43;7.80;99.90
28010;DHT22;15334;49.494;8.410;2022-11-20T16:48:16;7.80;99.90
28010;DHT22;15334;49.494;8.410;2022-11-20T16:50:48;7.80;99.90